sensor_id;sensor_type;location;lat;lon;timestamp;temperature;humidity
52044;DHT22;38053;53.100;6.078;2023-03-19T00:01:23;10.20;99.90
52044;DHT22;38053;53.100;6.078;2023-03-19T00:04:01;10.20;99.90
52044;DHT22;38053;53.100;6.078;2023-03-19T00:06:43;10.20;99.90
52044;DHT22;38053;53.100;6.078;2023-03-19T00:09:14;10.30;99.90
52044;DHT22;38053;53.100;6.078;2023-03-19T00:11:53;10.30;99.90
52044;DHT22;38053;53.100;6.078;2023-03-19T00:14:28;10.30;99.90
52044;DHT22;38053;53.100;6.078;2023-03-19T00:17:30;10.30;99.90
52044;DHT22;38053;53.100;6.078;2023-03-19T00:20:04;10.30;99.90
52044;DHT22;38053;53.100;6.078;2023-03-19T00:22:49;10.40;99.90
52044;DHT22;38053;53.100;6.078;2023-03-19T00:25:40;10.40;99.90
52044;DHT22;38053;53.100;6.078;2023-03-19T00:28:24;10.40;99.90
52044;DHT22;38053;53.100;6.078;2023-03-19T00:31:03;10.50;99.90
52044;DHT22;38053;53.100;6.078;2023-03-19T00:33:43;10.50;99.90
52044;DHT22;38053;53.100;6.078;2023-03-19T00:36:11;10.50;99.90
52044;DHT22;38053;53.100;6.078;2023-03-19T00:38:52;10.50;99.90
52044;DHT22;38053;53.100;6.078;2023-03-19T00:41:42;10.50;99.90
52044;DHT22;38053;53.100;6.078;2023-03-19T00:44:19;10.50;99.90
52044;DHT22;38053;53.100;6.078;2023-03-19T00:46:48;10.50;99.90
52044;DHT22;38053;53.100;6.078;2023-03-19T00:49:18;10.50;99.90
52044;DHT22;38053;53.100;6.078;2023-03-19T00:52:06;10.40;99.90
52044;DHT22;38053;53.100;6.078;2023-03-19T00:54:35;10.40;99.90
52044;DHT22;38053;53.100;6.078;2023-03-19T00:57:01;10.40;99.90
52044;DHT22;38053;53.100;6.078;2023-03-19T00:59:26;10.40;99.90
52044;DHT22;38053;53.100;6.078;2023-03-19T01:01:55;10.40;99.90
52044;DHT22;38053;53.100;6.078;2023-03-19T01:04:23;10.40;99.90
52044;DHT22;38053;53.100;6.078;2023-03-19T01:06:50;10.40;99.90
52044;DHT22;38053;53.100;6.078;2023-03-19T01:09:16;10.40;99.90
52044;DHT22;38053;53.100;6.078;2023-03-19T01:11:42;10.40;99.90
52044;DHT22;38053;53.100;6.078;2023-03-19T01:14:08;10.40;99.90
52044;DHT22;38053;53.100;6.078;2023-03-19T01:16:33;10.30;99.90
52044;DHT22;38053;53.100;6.078;2023-03-19T01:19:01;10.30;99.90
52044;DHT22;38053;53.100;6.078;2023-03-19T01:21:26;10.30;99.90
52044;DHT22;38053;53.100;6.078;2023-03-19T01:23:59;10.30;99.90
52044;DHT22;38053;53.100;6.078;2023-03-19T01:26:24;10.30;99.90
52044;DHT22;38053;53.100;6.078;2023-03-19T01:28:50;10.30;99.90
52044;DHT22;38053;53.100;6.078;2023-03-19T01:31:16;10.30;99.90
52044;DHT22;38053;53.100;6.078;2023-03-19T01:33:42;10.30;99.90
52044;DHT22;38053;53.100;6.078;2023-03-19T01:36:08;10.30;99.90
52044;DHT22;38053;53.100;6.078;2023-03-19T01:38:34;10.20;99.90
52044;DHT22;38053;53.100;6.078;2023-03-19T01:41:00;10.20;99.90
52044;DHT22;38053;53.100;6.078;2023-03-19T01:43:30;10.10;99.90
52044;DHT22;38053;53.100;6.078;2023-03-19T01:48:51;10.00;99.90
52044;DHT22;38053;53.100;6.078;2023-03-19T01:51:22;10.00;99.90
52044;DHT22;38053;53.100;6.078;2023-03-19T01:53:54;10.00;99.90
52044;DHT22;38053;53.100;6.078;2023-03-19T01:56:23;10.00;99.90
52044;DHT22;38053;53.100;6.078;2023-03-19T01:58:52;9.90;99.90
52044;DHT22;38053;53.100;6.078;2023-03-19T02:01:20;9.90;99.90
52044;DHT22;38053;53.100;6.078;2023-03-19T02:03:45;9.90;99.90
52044;DHT22;38053;53.100;6.078;2023-03-19T02:06:12;9.90;99.90
52044;DHT22;38053;53.100;6.078;2023-03-19T02:08:41;9.90;99.90
52044;DHT22;38053;53.100;6.078;2023-03-19T02:11:06;9.90;99.90
52044;DHT22;38053;53.100;6.078;2023-03-19T02:13:33;9.80;99.90
52044;DHT22;38053;53.100;6.078;2023-03-19T02:16:01;9.90;99.90
52044;DHT22;38053;53.100;6.078;2023-03-19T02:18:26;9.90;99.90
52044;DHT22;38053;53.100;6.078;2023-03-19T02:21:10;9.90;99.90
52044;DHT22;38053;53.100;6.078;2023-03-19T02:24:01;9.90;99.90
52044;DHT22;38053;53.100;6.078;2023-03-19T02:26:29;9.90;99.90
52044;DHT22;38053;53.100;6.078;2023-03-19T02:28:58;9.90;99.90
52044;DHT22;38053;53.100;6.078;2023-03-19T02:31:24;9.90;99.90
52044;DHT22;38053;53.100;6.078;2023-03-19T02:34:29;9.90;99.90
52044;DHT22;38053;53.100;6.078;2023-03-19T02:37:01;9.90;99.90
52044;DHT22;38053;53.100;6.078;2023-03-19T02:39:40;9.90;99.90
52044;DHT22;38053;53.100;6.078;2023-03-19T02:42:09;9.90;99.90
52044;DHT22;38053;53.100;6.078;2023-03-19T02:44:36;9.90;99.90
52044;DHT22;38053;53.100;6.078;2023-03-19T02:47:03;9.90;99.90
52044;DHT22;38053;53.100;6.078;2023-03-19T02:49:29;9.90;99.90
52044;DHT22;38053;53.100;6.078;2023-03-19T02:51:54;9.90;99.90
52044;DHT22;38053;53.100;6.078;2023-03-19T02:54:20;9.80;99.90
52044;DHT22;38053;53.100;6.078;2023-03-19T02:56:46;9.90;99.90
52044;DHT22;38053;53.100;6.078;2023-03-19T02:59:13;9.80;99.90
52044;DHT22;38053;53.100;6.078;2023-03-19T03:01:39;9.80;99.90
52044;DHT22;38053;53.100;6.078;2023-03-19T03:04:05;9.80;99.90
52044;DHT22;38053;53.100;6.078;2023-03-19T03:06:31;9.80;99.90
52044;DHT22;38053;53.100;6.078;2023-03-19T03:08:57;9.80;99.90
52044;DHT22;38053;53.100;6.078;2023-03-19T03:11:23;9.80;99.90
52044;DHT22;38053;53.100;6.078;2023-03-19T03:13:49;9.80;99.90
52044;DHT22;38053;53.100;6.078;2023-03-19T03:16:17;9.80;99.90
52044;DHT22;38053;53.100;6.078;2023-03-19T03:18:43;9.80;99.90
52044;DHT22;38053;53.100;6.078;2023-03-19T03:21:09;9.80;99.90
52044;DHT22;38053;53.100;6.078;2023-03-19T03:23:34;9.80;99.90
52044;DHT22;38053;53.100;6.078;2023-03-19T03:26:01;9.80;99.90
52044;DHT22;38053;53.100;6.078;2023-03-19T03:28:27;9.80;99.90
52044;DHT22;38053;53.100;6.078;2023-03-19T03:30:59;9.80;99.90
52044;DHT22;38053;53.100;6.078;2023-03-19T03:33:25;9.80;99.90
52044;DHT22;38053;53.100;6.078;2023-03-19T03:35:51;9.80;99.90
52044;DHT22;38053;53.100;6.078;2023-03-19T03:38:17;9.80;99.90
52044;DHT22;38053;53.100;6.078;2023-03-19T03:40:43;9.80;99.90
52044;DHT22;38053;53.100;6.078;2023-03-19T03:43:09;9.80;99.90
52044;DHT22;38053;53.100;6.078;2023-03-19T03:45:35;9.80;99.90
52044;DHT22;38053;53.100;6.078;2023-03-19T03:48:02;9.80;99.90
52044;DHT22;38053;53.100;6.078;2023-03-19T03:50:28;9.70;99.90
52044;DHT22;38053;53.100;6.078;2023-03-19T03:52:53;9.80;99.90
52044;DHT22;38053;53.100;6.078;2023-03-19T03:55:19;9.70;99.90
52044;DHT22;38053;53.100;6.078;2023-03-19T03:57:45;9.70;99.90
52044;DHT22;38053;53.100;6.078;2023-03-19T04:00:11;9.80;99.90
52044;DHT22;38053;53.100;6.078;2023-03-19T04:02:37;9.80;99.90
52044;DHT22;38053;53.100;6.078;2023-03-19T04:05:02;9.70;99.90
52044;DHT22;38053;53.100;6.078;2023-03-19T04:07:28;9.70;99.90
52044;DHT22;38053;53.100;6.078;2023-03-19T04:09:57;9.80;99.90
52044;DHT22;38053;53.100;6.078;2023-03-19T04:12:25;9.80;99.90
52044;DHT22;38053;53.100;6.078;2023-03-19T04:14:52;9.80;99.90
52044;DHT22;38053;53.100;6.078;2023-03-19T04:17:18;9.80;99.90
52044;DHT22;38053;53.100;6.078;2023-03-19T04:19:43;9.80;99.90
52044;DHT22;38053;53.100;6.078;2023-03-19T04:22:09;9.80;99.90
52044;DHT22;38053;53.100;6.078;2023-03-19T04:24:35;9.80;99.90
52044;DHT22;38053;53.100;6.078;2023-03-19T04:27:01;9.80;99.90
52044;DHT22;38053;53.100;6.078;2023-03-19T04:29:27;9.80;99.90
52044;DHT22;38053;53.100;6.078;2023-03-19T04:31:53;9.80;99.90
52044;DHT22;38053;53.100;6.078;2023-03-19T04:34:18;9.70;99.90
52044;DHT22;38053;53.100;6.078;2023-03-19T04:36:44;9.80;99.90
52044;DHT22;38053;53.100;6.078;2023-03-19T04:39:10;9.70;99.90
52044;DHT22;38053;53.100;6.078;2023-03-19T04:41:37;9.70;99.90
52044;DHT22;38053;53.100;6.078;2023-03-19T04:44:04;9.70;99.90
52044;DHT22;38053;53.100;6.078;2023-03-19T04:46:32;9.70;99.90
52044;DHT22;38053;53.100;6.078;2023-03-19T04:48:58;9.60;99.90
52044;DHT22;38053;53.100;6.078;2023-03-19T04:51:24;9.60;99.90
52044;DHT22;38053;53.100;6.078;2023-03-19T04:53:51;9.50;99.90
52044;DHT22;38053;53.100;6.078;2023-03-19T04:56:16;9.50;99.90
52044;DHT22;38053;53.100;6.078;2023-03-19T04:58:43;9.50;99.90
52044;DHT22;38053;53.100;6.078;2023-03-19T05:01:10;9.40;99.90
52044;DHT22;38053;53.100;6.078;2023-03-19T05:03:36;9.30;99.90
52044;DHT22;38053;53.100;6.078;2023-03-19T05:06:02;9.20;99.90
52044;DHT22;38053;53.100;6.078;2023-03-19T05:08:27;9.10;99.90
52044;DHT22;38053;53.100;6.078;2023-03-19T05:10:53;9.10;99.90
52044;DHT22;38053;53.100;6.078;2023-03-19T05:13:19;9.00;99.90
52044;DHT22;38053;53.100;6.078;2023-03-19T05:15:45;9.00;99.90
52044;DHT22;38053;53.100;6.078;2023-03-19T05:18:12;8.90;99.90
52044;DHT22;38053;53.100;6.078;2023-03-19T05:20:39;8.80;99.90
52044;DHT22;38053;53.100;6.078;2023-03-19T05:23:05;8.80;99.90
52044;DHT22;38053;53.100;6.078;2023-03-19T05:25:33;8.70;99.90
52044;DHT22;38053;53.100;6.078;2023-03-19T05:28:00;8.70;99.90
52044;DHT22;38053;53.100;6.078;2023-03-19T05:30:26;8.70;99.90
52044;DHT22;38053;53.100;6.078;2023-03-19T05:32:52;8.60;99.90
52044;DHT22;38053;53.100;6.078;2023-03-19T05:35:21;8.60;99.90
52044;DHT22;38053;53.100;6.078;2023-03-19T05:37:47;8.60;99.90
52044;DHT22;38053;53.100;6.078;2023-03-19T05:40:14;8.60;99.90
52044;DHT22;38053;53.100;6.078;2023-03-19T05:42:41;8.50;99.90
52044;DHT22;38053;53.100;6.078;2023-03-19T05:45:07;8.50;99.90
52044;DHT22;38053;53.100;6.078;2023-03-19T05:47:33;8.40;99.90
52044;DHT22;38053;53.100;6.078;2023-03-19T05:49:59;8.40;99.90
52044;DHT22;38053;53.100;6.078;2023-03-19T05:52:25;8.40;99.90
52044;DHT22;38053;53.100;6.078;2023-03-19T05:54:53;8.40;99.90
52044;DHT22;38053;53.100;6.078;2023-03-19T05:57:19;8.50;99.90
52044;DHT22;38053;53.100;6.078;2023-03-19T05:59:45;8.50;99.90
52044;DHT22;38053;53.100;6.078;2023-03-19T06:02:11;8.50;99.90
52044;DHT22;38053;53.100;6.078;2023-03-19T06:04:37;8.60;99.90
52044;DHT22;38053;53.100;6.078;2023-03-19T06:07:02;8.50;99.90
52044;DHT22;38053;53.100;6.078;2023-03-19T06:09:29;8.60;99.90
52044;DHT22;38053;53.100;6.078;2023-03-19T06:11:54;8.50;99.90
52044;DHT22;38053;53.100;6.078;2023-03-19T06:14:20;8.50;99.90
52044;DHT22;38053;53.100;6.078;2023-03-19T06:16:47;8.50;99.90
52044;DHT22;38053;53.100;6.078;2023-03-19T06:19:13;8.50;99.90
52044;DHT22;38053;53.100;6.078;2023-03-19T06:21:39;8.50;99.90
52044;DHT22;38053;53.100;6.078;2023-03-19T06:24:05;8.40;99.90
52044;DHT22;38053;53.100;6.078;2023-03-19T06:26:32;8.40;99.90
52044;DHT22;38053;53.100;6.078;2023-03-19T06:28:58;8.40;99.90
52044;DHT22;38053;53.100;6.078;2023-03-19T06:31:24;8.40;99.90
52044;DHT22;38053;53.100;6.078;2023-03-19T06:33:50;8.40;99.90
52044;DHT22;38053;53.100;6.078;2023-03-19T06:36:16;8.40;99.90
52044;DHT22;38053;53.100;6.078;2023-03-19T06:38:42;8.40;99.90
52044;DHT22;38053;53.100;6.078;2023-03-19T06:41:08;8.40;99.90
52044;DHT22;38053;53.100;6.078;2023-03-19T06:43:34;8.50;99.90
52044;DHT22;38053;53.100;6.078;2023-03-19T06:46:05;8.50;99.90
52044;DHT22;38053;53.100;6.078;2023-03-19T06:48:32;8.60;99.90
52044;DHT22;38053;53.100;6.078;2023-03-19T06:50:58;8.60;99.90
52044;DHT22;38053;53.100;6.078;2023-03-19T06:53:25;8.60;99.90
52044;DHT22;38053;53.100;6.078;2023-03-19T06:55:50;8.70;99.90
52044;DHT22;38053;53.100;6.078;2023-03-19T06:58:16;8.60;99.90
52044;DHT22;38053;53.100;6.078;2023-03-19T07:00:43;8.70;99.90
52044;DHT22;38053;53.100;6.078;2023-03-19T07:03:09;8.70;99.90
52044;DHT22;38053;53.100;6.078;2023-03-19T07:05:35;8.70;99.90
52044;DHT22;38053;53.100;6.078;2023-03-19T07:08:00;8.70;99.90
52044;DHT22;38053;53.100;6.078;2023-03-19T07:10:26;8.70;99.90
52044;DHT22;38053;53.100;6.078;2023-03-19T07:13:04;8.70;99.90
52044;DHT22;38053;53.100;6.078;2023-03-19T07:15:31;8.70;99.90
52044;DHT22;38053;53.100;6.078;2023-03-19T07:17:58;8.70;99.90
52044;DHT22;38053;53.100;6.078;2023-03-19T07:20:23;8.80;99.90
52044;DHT22;38053;53.100;6.078;2023-03-19T07:22:51;8.80;99.90
52044;DHT22;38053;53.100;6.078;2023-03-19T07:25:19;8.80;99.90
52044;DHT22;38053;53.100;6.078;2023-03-19T07:27:45;8.90;99.90
52044;DHT22;38053;53.100;6.078;2023-03-19T07:30:13;8.90;99.90
52044;DHT22;38053;53.100;6.078;2023-03-19T07:32:40;9.00;99.90
52044;DHT22;38053;53.100;6.078;2023-03-19T07:35:08;9.10;99.90
52044;DHT22;38053;53.100;6.078;2023-03-19T07:37:35;9.20;99.90
52044;DHT22;38053;53.100;6.078;2023-03-19T07:40:01;9.30;99.90
52044;DHT22;38053;53.100;6.078;2023-03-19T07:42:26;9.40;99.90
52044;DHT22;38053;53.100;6.078;2023-03-19T07:44:55;9.50;99.90
52044;DHT22;38053;53.100;6.078;2023-03-19T07:47:22;9.60;99.90
52044;DHT22;38053;53.100;6.078;2023-03-19T07:49:48;9.60;99.90
52044;DHT22;38053;53.100;6.078;2023-03-19T07:52:14;9.60;99.90
52044;DHT22;38053;53.100;6.078;2023-03-19T07:54:43;9.60;99.90
52044;DHT22;38053;53.100;6.078;2023-03-19T07:57:09;9.60;99.90
52044;DHT22;38053;53.100;6.078;2023-03-19T07:59:42;9.60;99.90
52044;DHT22;38053;53.100;6.078;2023-03-19T08:02:12;9.60;99.90
52044;DHT22;38053;53.100;6.078;2023-03-19T08:04:38;9.70;99.90
52044;DHT22;38053;53.100;6.078;2023-03-19T08:07:04;9.70;99.90
52044;DHT22;38053;53.100;6.078;2023-03-19T08:09:34;9.70;99.90
52044;DHT22;38053;53.100;6.078;2023-03-19T08:11:59;9.80;99.90
52044;DHT22;38053;53.100;6.078;2023-03-19T08:14:33;9.70;99.90
52044;DHT22;38053;53.100;6.078;2023-03-19T08:17:05;9.80;99.90
52044;DHT22;38053;53.100;6.078;2023-03-19T08:19:31;9.70;99.90
52044;DHT22;38053;53.100;6.078;2023-03-19T08:21:57;9.80;99.90
52044;DHT22;38053;53.100;6.078;2023-03-19T08:24:23;9.70;99.90
52044;DHT22;38053;53.100;6.078;2023-03-19T08:26:50;9.80;99.90
52044;DHT22;38053;53.100;6.078;2023-03-19T08:29:16;9.80;99.90
52044;DHT22;38053;53.100;6.078;2023-03-19T08:31:43;9.80;99.90
52044;DHT22;38053;53.100;6.078;2023-03-19T08:34:10;9.90;99.90
52044;DHT22;38053;53.100;6.078;2023-03-19T08:36:37;9.80;99.90
52044;DHT22;38053;53.100;6.078;2023-03-19T08:39:04;9.70;99.90
52044;DHT22;38053;53.100;6.078;2023-03-19T08:41:31;9.80;99.90
52044;DHT22;38053;53.100;6.078;2023-03-19T08:43:57;9.70;99.90
52044;DHT22;38053;53.100;6.078;2023-03-19T08:46:23;9.80;99.90
52044;DHT22;38053;53.100;6.078;2023-03-19T08:48:50;9.80;99.90
52044;DHT22;38053;53.100;6.078;2023-03-19T08:51:23;9.70;99.90
52044;DHT22;38053;53.100;6.078;2023-03-19T08:53:54;9.80;99.90
52044;DHT22;38053;53.100;6.078;2023-03-19T08:56:20;9.80;99.90
52044;DHT22;38053;53.100;6.078;2023-03-19T08:58:46;9.80;99.90
52044;DHT22;38053;53.100;6.078;2023-03-19T09:01:16;9.70;99.90
52044;DHT22;38053;53.100;6.078;2023-03-19T09:03:42;9.70;99.90
52044;DHT22;38053;53.100;6.078;2023-03-19T09:06:16;9.70;99.90
52044;DHT22;38053;53.100;6.078;2023-03-19T09:08:51;9.70;99.90
52044;DHT22;38053;53.100;6.078;2023-03-19T09:12:19;9.60;99.90
52044;DHT22;38053;53.100;6.078;2023-03-19T09:15:04;9.50;99.90
52044;DHT22;38053;53.100;6.078;2023-03-19T09:18:01;9.50;99.90
52044;DHT22;38053;53.100;6.078;2023-03-19T09:24:35;9.50;99.90
52044;DHT22;38053;53.100;6.078;2023-03-19T09:27:31;9.40;99.90
52044;DHT22;38053;53.100;6.078;2023-03-19T09:37:21;9.30;99.90
52044;DHT22;38053;53.100;6.078;2023-03-19T09:51:02;9.10;99.90
52044;DHT22;38053;53.100;6.078;2023-03-19T10:24:17;9.40;99.90
52044;DHT22;38053;53.100;6.078;2023-03-19T10:27:27;9.40;99.90
52044;DHT22;38053;53.100;6.078;2023-03-19T10:30:14;9.50;99.90
52044;DHT22;38053;53.100;6.078;2023-03-19T10:33:07;9.50;99.90
52044;DHT22;38053;53.100;6.078;2023-03-19T10:35:57;9.50;99.90
52044;DHT22;38053;53.100;6.078;2023-03-19T10:38:52;9.50;99.90
52044;DHT22;38053;53.100;6.078;2023-03-19T10:51:08;9.60;99.90
52044;DHT22;38053;53.100;6.078;2023-03-19T11:01:11;9.60;99.90
52044;DHT22;38053;53.100;6.078;2023-03-19T11:04:22;9.70;99.90
52044;DHT22;38053;53.100;6.078;2023-03-19T11:06:55;9.70;99.90
52044;DHT22;38053;53.100;6.078;2023-03-19T11:09:34;9.70;99.90
52044;DHT22;38053;53.100;6.078;2023-03-19T11:14:56;9.80;99.90
52044;DHT22;38053;53.100;6.078;2023-03-19T11:17:54;9.80;99.90
52044;DHT22;38053;53.100;6.078;2023-03-19T11:20:47;9.80;99.90
52044;DHT22;38053;53.100;6.078;2023-03-19T11:23:24;9.70;99.90
52044;DHT22;38053;53.100;6.078;2023-03-19T11:26:20;9.70;99.90
52044;DHT22;38053;53.100;6.078;2023-03-19T11:28:52;9.70;99.90
52044;DHT22;38053;53.100;6.078;2023-03-19T11:31:36;9.60;99.90
52044;DHT22;38053;53.100;6.078;2023-03-19T11:51:27;9.70;99.90
52044;DHT22;38053;53.100;6.078;2023-03-19T12:03:26;9.90;99.90
52044;DHT22;38053;53.100;6.078;2023-03-19T12:18:07;10.00;99.90
52044;DHT22;38053;53.100;6.078;2023-03-19T12:24:04;10.00;99.90
52044;DHT22;38053;53.100;6.078;2023-03-19T12:26:57;10.00;99.90
52044;DHT22;38053;53.100;6.078;2023-03-19T12:36:24;10.20;99.90
52044;DHT22;38053;53.100;6.078;2023-03-19T12:39:17;10.10;99.90
52044;DHT22;38053;53.100;6.078;2023-03-19T12:42:21;10.20;99.90
52044;DHT22;38053;53.100;6.078;2023-03-19T12:45:02;10.20;99.90
52044;DHT22;38053;53.100;6.078;2023-03-19T12:51:52;10.10;99.90
52044;DHT22;38053;53.100;6.078;2023-03-19T12:55:21;10.10;99.90
52044;DHT22;38053;53.100;6.078;2023-03-19T13:01:26;10.10;99.90
52044;DHT22;38053;53.100;6.078;2023-03-19T13:04:31;10.10;99.90
52044;DHT22;38053;53.100;6.078;2023-03-19T13:15:30;10.20;99.90
52044;DHT22;38053;53.100;6.078;2023-03-19T13:18:35;10.10;99.90
52044;DHT22;38053;53.100;6.078;2023-03-19T13:21:37;10.20;99.90
52044;DHT22;38053;53.100;6.078;2023-03-19T13:24:39;10.20;99.90
52044;DHT22;38053;53.100;6.078;2023-03-19T13:34:25;10.30;99.90
52044;DHT22;38053;53.100;6.078;2023-03-19T13:40:44;10.50;99.90
52044;DHT22;38053;53.100;6.078;2023-03-19T13:43:40;10.50;99.90
52044;DHT22;38053;53.100;6.078;2023-03-19T13:46:34;10.50;99.90
52044;DHT22;38053;53.100;6.078;2023-03-19T14:11:22;10.60;99.90
52044;DHT22;38053;53.100;6.078;2023-03-19T14:14:16;10.70;99.90
52044;DHT22;38053;53.100;6.078;2023-03-19T14:21:04;10.50;99.90
52044;DHT22;38053;53.100;6.078;2023-03-19T15:23:14;10.40;99.90
52044;DHT22;38053;53.100;6.078;2023-03-19T16:18:57;9.70;99.90
52044;DHT22;38053;53.100;6.078;2023-03-19T16:46:09;9.50;99.90
52044;DHT22;38053;53.100;6.078;2023-03-19T16:52:22;9.40;99.90
52044;DHT22;38053;53.100;6.078;2023-03-19T16:58:41;9.40;99.90
52044;DHT22;38053;53.100;6.078;2023-03-19T17:02:08;9.30;99.90
52044;DHT22;38053;53.100;6.078;2023-03-19T17:04:46;9.30;99.90
52044;DHT22;38053;53.100;6.078;2023-03-19T17:07:36;9.30;99.90
52044;DHT22;38053;53.100;6.078;2023-03-19T17:13:58;9.20;99.90
52044;DHT22;38053;53.100;6.078;2023-03-19T17:17:18;9.20;99.90
52044;DHT22;38053;53.100;6.078;2023-03-19T17:20:48;9.20;99.90
52044;DHT22;38053;53.100;6.078;2023-03-19T17:23:58;9.20;99.90
52044;DHT22;38053;53.100;6.078;2023-03-19T17:27:02;9.10;99.90
52044;DHT22;38053;53.100;6.078;2023-03-19T17:30:07;9.10;99.90
52044;DHT22;38053;53.100;6.078;2023-03-19T17:33:28;9.00;99.90
52044;DHT22;38053;53.100;6.078;2023-03-19T17:36:58;9.00;99.90
52044;DHT22;38053;53.100;6.078;2023-03-19T18:12:46;8.70;99.90
52044;DHT22;38053;53.100;6.078;2023-03-19T18:27:08;8.60;99.90
52044;DHT22;38053;53.100;6.078;2023-03-19T18:30:40;8.50;99.90
52044;DHT22;38053;53.100;6.078;2023-03-19T18:34:33;8.40;99.90
52044;DHT22;38053;53.100;6.078;2023-03-19T18:37:50;8.50;99.90
52044;DHT22;38053;53.100;6.078;2023-03-19T19:03:18;8.10;99.90
52044;DHT22;38053;53.100;6.078;2023-03-19T19:06:39;8.00;99.90
52044;DHT22;38053;53.100;6.078;2023-03-19T19:17:25;7.90;99.90
52044;DHT22;38053;53.100;6.078;2023-03-19T19:24:08;8.00;99.90
52044;DHT22;38053;53.100;6.078;2023-03-19T19:27:41;7.90;99.90
52044;DHT22;38053;53.100;6.078;2023-03-19T19:30:51;7.90;99.90
52044;DHT22;38053;53.100;6.078;2023-03-19T19:33:39;7.90;99.90
52044;DHT22;38053;53.100;6.078;2023-03-19T19:43:26;7.90;99.90
52044;DHT22;38053;53.100;6.078;2023-03-19T19:50:26;7.90;99.90
52044;DHT22;38053;53.100;6.078;2023-03-19T19:53:14;7.90;99.90
52044;DHT22;38053;53.100;6.078;2023-03-19T20:21:15;7.80;99.90
52044;DHT22;38053;53.100;6.078;2023-03-19T20:24:42;7.80;99.90
52044;DHT22;38053;53.100;6.078;2023-03-19T20:27:31;7.80;99.90
52044;DHT22;38053;53.100;6.078;2023-03-19T20:37:14;7.80;99.90
52044;DHT22;38053;53.100;6.078;2023-03-19T20:40:43;7.80;99.90
52044;DHT22;38053;53.100;6.078;2023-03-19T20:43:35;7.80;99.90
52044;DHT22;38053;53.100;6.078;2023-03-19T20:46:54;7.70;99.90
52044;DHT22;38053;53.100;6.078;2023-03-19T20:49:48;7.70;99.90
52044;DHT22;38053;53.100;6.078;2023-03-19T20:52:49;7.70;99.90
52044;DHT22;38053;53.100;6.078;2023-03-19T20:55:42;7.70;99.90
52044;DHT22;38053;53.100;6.078;2023-03-19T20:58:33;7.70;99.90
52044;DHT22;38053;53.100;6.078;2023-03-19T21:01:17;7.70;99.90
52044;DHT22;38053;53.100;6.078;2023-03-19T21:07:08;7.70;99.90
52044;DHT22;38053;53.100;6.078;2023-03-19T21:10:54;7.70;99.90
52044;DHT22;38053;53.100;6.078;2023-03-19T21:13:46;7.70;99.90
52044;DHT22;38053;53.100;6.078;2023-03-19T21:20:52;7.70;99.90
52044;DHT22;38053;53.100;6.078;2023-03-19T21:27:46;7.60;99.90
52044;DHT22;38053;53.100;6.078;2023-03-19T21:34:11;7.60;99.90
52044;DHT22;38053;53.100;6.078;2023-03-19T21:41:57;7.50;99.90
52044;DHT22;38053;53.100;6.078;2023-03-19T21:54:42;7.20;99.90
52044;DHT22;38053;53.100;6.078;2023-03-19T22:01:08;7.20;99.90
52044;DHT22;38053;53.100;6.078;2023-03-19T22:11:31;7.10;99.90
52044;DHT22;38053;53.100;6.078;2023-03-19T22:14:12;7.10;99.90
52044;DHT22;38053;53.100;6.078;2023-03-19T22:16:57;7.20;99.90
52044;DHT22;38053;53.100;6.078;2023-03-19T22:20:12;7.10;99.90
52044;DHT22;38053;53.100;6.078;2023-03-19T22:23:03;7.10;99.90
52044;DHT22;38053;53.100;6.078;2023-03-19T22:25:57;7.10;99.90
52044;DHT22;38053;53.100;6.078;2023-03-19T22:28:33;7.10;99.90
52044;DHT22;38053;53.100;6.078;2023-03-19T22:34:25;7.00;99.90
52044;DHT22;38053;53.100;6.078;2023-03-19T22:37:38;7.00;99.90
52044;DHT22;38053;53.100;6.078;2023-03-19T22:40:22;7.00;99.90
52044;DHT22;38053;53.100;6.078;2023-03-19T22:43:02;7.00;99.90
52044;DHT22;38053;53.100;6.078;2023-03-19T22:45:44;7.00;99.90
52044;DHT22;38053;53.100;6.078;2023-03-19T22:48:31;7.00;99.90
52044;DHT22;38053;53.100;6.078;2023-03-19T22:51:20;7.00;99.90
52044;DHT22;38053;53.100;6.078;2023-03-19T22:53:55;6.90;99.90
52044;DHT22;38053;53.100;6.078;2023-03-19T22:56:32;6.90;99.90
52044;DHT22;38053;53.100;6.078;2023-03-19T22:58:58;6.90;99.90
52044;DHT22;38053;53.100;6.078;2023-03-19T23:01:42;6.90;99.90
